Time;durP1;ratioP1;P1;durP2;ratioP2;P2;SDS_P1;SDS_P2;PMS_P1;PMS_P2;Temp;Humidity;BMP_temperature;BMP_pressure;BME280_temperature;BME280_humidity;BME280_pressure;Samples;Min_cycle;Max_cycle;Signal;HPM_P1;HPM_P2
2022/12/06 00:02:11;;;;;;;3.42;2.63;;;8.00;99.90;;;;;;5015382;28;20034;-76
2022/12/06 00:04:37;;;;;;;2.85;2.58;;;8.10;99.90;;;;;;5015623;28;20489;-75
2022/12/06 00:07:03;;;;;;;3.50;2.70;;;8.10;99.90;;;;;;5016474;28;20022;-76
2022/12/06 00:09:30;;;;;;;2.83;2.40;;;8.10;99.90;;;;;;5016641;28;20044;-76
2022/12/06 00:11:57;;;;;;;3.13;2.25;;;8.20;99.90;;;;;;5031523;28;20355;-75
2022/12/06 00:14:23;;;;;;;3.50;2.78;;;8.20;99.90;;;;;;5015065;28;20030;-75
2022/12/06 00:16:50;;;;;;;3.85;2.47;;;8.20;99.90;;;;;;5015753;28;20093;-76
2022/12/06 00:19:18;;;;;;;3.92;2.60;;;8.30;99.90;;;;;;5016852;28;20026;-76
2022/12/06 00:21:46;;;;;;;3.55;2.88;;;8.30;99.90;;;;;;5016784;28;20382;-76
2022/12/06 00:24:14;;;;;;;5.00;2.67;;;8.30;99.90;;;;;;5014696;28;20038;-75
2022/12/06 00:26:42;;;;;;;3.28;2.17;;;8.30;99.90;;;;;;5016114;28;20025;-75
2022/12/06 00:29:12;;;;;;;3.25;2.60;;;8.40;99.90;;;;;;5016918;28;20413;-75
2022/12/06 00:31:39;;;;;;;3.35;2.80;;;8.40;99.90;;;;;;5016003;28;20026;-74
2022/12/06 00:34:04;;;;;;;3.15;2.60;;;8.40;99.90;;;;;;5016228;28;20387;-75
2022/12/06 00:36:34;;;;;;;3.03;2.72;;;8.40;99.90;;;;;;5031335;28;20026;-75
2022/12/06 00:39:02;;;;;;;3.38;2.28;;;8.40;99.90;;;;;;5016200;28;20076;-75
2022/12/06 00:41:28;;;;;;;3.00;2.35;;;8.40;99.90;;;;;;5015867;28;20037;-75
2022/12/06 00:43:54;;;;;;;3.47;3.15;;;8.40;99.90;;;;;;5015693;28;20037;-75
2022/12/06 00:46:23;;;;;;;3.47;2.67;;;8.40;99.90;;;;;;5015529;28;20026;-76
2022/12/06 00:48:50;;;;;;;3.58;2.95;;;8.30;99.90;;;;;;5016093;28;20038;-76
2022/12/06 00:51:17;;;;;;;3.83;3.15;;;8.30;99.90;;;;;;5014968;28;20060;-76
2022/12/06 00:53:44;;;;;;;3.50;3.20;;;8.30;99.90;;;;;;5015968;28;20030;-75
2022/12/06 00:56:10;;;;;;;3.38;3.05;;;8.30;99.90;;;;;;5029413;28;20053;-75
2022/12/06 00:58:36;;;;;;;3.72;3.33;;;8.30;99.90;;;;;;5035506;28;20036;-75
2022/12/06 01:01:18;;;;;;;4.45;3.47;;;8.30;99.90;;;;;;5035465;28;20108;-75
2022/12/06 01:03:44;;;;;;;3.58;3.22;;;8.20;99.90;;;;;;5035187;28;20022;-75
2022/12/06 01:06:13;;;;;;;5.32;2.90;;;8.20;99.90;;;;;;5035627;28;20036;-76
2022/12/06 01:08:40;;;;;;;4.55;3.45;;;8.10;99.90;;;;;;5034918;28;20067;-76
2022/12/06 01:11:07;;;;;;;3.50;2.90;;;8.10;99.90;;;;;;5016700;28;20032;-76
2022/12/06 01:13:32;;;;;;;3.97;3.10;;;8.10;99.90;;;;;;5016955;28;20069;-76
2022/12/06 01:16:07;;;;;;;3.75;3.20;;;8.10;99.90;;;;;;5033799;28;20072;-76
2022/12/06 01:18:33;;;;;;;3.10;2.80;;;8.00;99.90;;;;;;5034402;28;20030;-77
2022/12/06 01:21:03;;;;;;;3.85;2.83;;;8.00;99.90;;;;;;5033260;28;20076;-76
2022/12/06 01:23:29;;;;;;;3.95;2.55;;;8.00;99.90;;;;;;5034370;28;20500;-76
2022/12/06 01:25:55;;;;;;;4.00;3.10;;;8.00;99.90;;;;;;5033037;28;20037;-76
2022/12/06 01:28:20;;;;;;;4.18;3.47;;;8.10;99.90;;;;;;5016950;28;20094;-76
2022/12/06 01:30:46;;;;;;;5.32;2.97;;;8.00;99.90;;;;;;5033032;28;20030;-76
2022/12/06 01:33:11;;;;;;;5.32;3.33;;;8.00;99.90;;;;;;5016704;28;20068;-76
2022/12/06 01:35:41;;;;;;;5.88;3.75;;;7.90;99.90;;;;;;5034423;28;20112;-76
2022/12/06 01:38:08;;;;;;;4.28;3.88;;;7.80;99.90;;;;;;5034552;28;20033;-76
2022/12/06 01:40:39;;;;;;;5.85;3.38;;;7.80;99.90;;;;;;5016458;28;20401;-75
2022/12/06 01:43:09;;;;;;;5.30;3.53;;;7.70;99.90;;;;;;5032838;28;20060;-75
2022/12/06 01:45:34;;;;;;;7.00;3.90;;;7.60;99.90;;;;;;5033447;28;20156;-76
2022/12/06 01:48:00;;;;;;;6.43;4.28;;;7.50;99.90;;;;;;5032806;28;20486;-75
2022/12/06 01:50:31;;;;;;;5.95;3.95;;;7.50;99.90;;;;;;5032812;28;20117;-75
2022/12/06 01:53:07;;;;;;;6.82;3.85;;;7.50;99.90;;;;;;5034192;28;20021;-76
2022/12/06 01:55:36;;;;;;;5.95;3.38;;;7.60;99.90;;;;;;5031909;28;20049;-75
2022/12/06 01:58:31;;;;;;;8.32;4.15;;;7.60;99.90;;;;;;5032552;28;20091;-77
2022/12/06 02:00:56;;;;;;;8.07;3.80;;;7.60;99.90;;;;;;5030728;28;20045;-76
2022/12/06 02:03:26;;;;;;;5.80;3.75;;;7.60;99.90;;;;;;5034342;28;20512;-76
2022/12/06 02:05:54;;;;;;;6.18;4.40;;;7.60;99.90;;;;;;5033790;28;20083;-77
2022/12/06 02:08:20;;;;;;;6.78;4.30;;;7.60;99.90;;;;;;5016539;28;20113;-77
2022/12/06 02:10:46;;;;;;;7.88;4.05;;;7.60;99.90;;;;;;5033785;28;20029;-77
2022/12/06 02:13:11;;;;;;;7.63;4.43;;;7.50;99.90;;;;;;5032645;28;20381;-77
2022/12/06 02:15:47;;;;;;;8.50;4.35;;;7.50;99.90;;;;;;5034164;28;20461;-76
2022/12/06 02:18:23;;;;;;;6.53;4.20;;;7.60;99.90;;;;;;5033519;28;20034;-77
2022/12/06 02:21:06;;;;;;;6.22;4.55;;;7.70;99.90;;;;;;5015884;28;20086;-77
2022/12/06 02:24:19;;;;;;;8.40;4.18;;;7.60;99.90;;;;;;5016518;28;20470;-77
2022/12/06 02:26:48;;;;;;;8.80;4.35;;;7.70;99.90;;;;;;4988010;28;20037;-76
2022/12/06 02:30:01;;;;;;;9.68;4.70;;;7.70;99.90;;;;;;5038839;28;20056;-76
2022/12/06 02:32:53;;;;;;;7.65;4.53;;;7.70;99.90;;;;;;5039574;28;20029;-77
2022/12/06 02:35:35;;;;;;;11.55;4.60;;;7.80;99.90;;;;;;5033861;28;20060;-76
2022/12/06 02:38:15;;;;;;;9.32;4.80;;;7.80;99.90;;;;;;5033373;28;20473;-77
2022/12/06 02:40:49;;;;;;;6.28;4.35;;;7.80;99.90;;;;;;5033381;28;20033;-76
2022/12/06 02:43:22;;;;;;;12.35;4.90;;;7.80;99.90;;;;;;5033017;28;20033;-77
2022/12/06 02:45:50;;;;;;;;;;;7.70;99.90;;;;;;5033443;28;20029;-77
2022/12/06 02:48:17;;;;;;;10.13;4.97;;;7.80;99.90;;;;;;5033162;28;19928;-77
2022/12/06 02:50:48;;;;;;;11.13;4.57;;;7.80;99.90;;;;;;5031947;28;20048;-77
2022/12/06 02:53:17;;;;;;;9.15;4.47;;;7.80;99.90;;;;;;5033231;28;20025;-77
2022/12/06 02:55:44;;;;;;;8.60;4.82;;;7.70;99.90;;;;;;5015109;28;20041;-77
2022/12/06 02:58:10;;;;;;;17.33;6.25;;;7.70;99.90;;;;;;5032897;28;20466;-77
2022/12/06 03:00:49;;;;;;;9.90;5.03;;;7.70;99.90;;;;;;5031792;28;20056;-77
2022/12/06 03:03:52;;;;;;;12.25;4.88;;;7.70;99.90;;;;;;5033151;28;20026;-77
2022/12/06 03:06:29;;;;;;;13.75;5.10;;;7.70;99.90;;;;;;5031469;28;20034;-77
2022/12/06 03:09:04;;;;;;;13.45;5.53;;;7.70;99.90;;;;;;5033102;28;20120;-77
2022/12/06 03:12:08;;;;;;;12.75;4.80;;;7.60;99.90;;;;;;5031326;28;20033;-77
2022/12/06 03:14:43;;;;;;;11.55;5.38;;;7.50;99.90;;;;;;5033027;28;20025;-77
2022/12/06 03:17:20;;;;;;;9.88;5.28;;;7.60;99.90;;;;;;5033357;28;20060;-77
2022/12/06 03:19:49;;;;;;;8.60;5.40;;;7.50;99.90;;;;;;5015847;28;20030;-76
2022/12/06 03:22:23;;;;;;;10.82;5.72;;;7.50;99.90;;;;;;5032648;28;20485;-76
2022/12/06 03:24:49;;;;;;;16.35;5.70;;;7.50;99.90;;;;;;5033416;28;20403;-76
2022/12/06 03:27:18;;;;;;;9.48;4.43;;;7.40;99.90;;;;;;5015902;28;20380;-76
2022/12/06 03:29:49;;;;;;;14.95;5.88;;;7.40;99.90;;;;;;5032854;28;20033;-77
2022/12/06 03:32:19;;;;;;;16.73;5.75;;;7.40;99.90;;;;;;5015791;28;20022;-76
2022/12/06 03:34:48;;;;;;;14.43;5.28;;;7.40;99.90;;;;;;5015326;28;20105;-76
2022/12/06 03:37:17;;;;;;;9.82;5.22;;;7.50;99.90;;;;;;5032775;28;20025;-77
2022/12/06 03:39:54;;;;;;;11.35;5.43;;;7.50;99.90;;;;;;5032681;28;20484;-77
2022/12/06 03:42:20;;;;;;;13.55;5.45;;;7.40;99.90;;;;;;5032874;28;20037;-78
2022/12/06 03:44:46;;;;;;;14.27;6.25;;;7.40;99.90;;;;;;5032084;28;20036;-78
2022/12/06 03:47:15;;;;;;;20.05;5.93;;;7.50;99.90;;;;;;5032979;28;20366;-78
2022/12/06 03:49:45;;;;;;;15.60;5.55;;;7.50;99.90;;;;;;5032582;28;20032;-78
2022/12/06 03:52:11;;;;;;;15.65;5.38;;;7.50;99.90;;;;;;5015384;28;20032;-78
2022/12/06 03:54:40;;;;;;;13.55;5.10;;;7.40;99.90;;;;;;5032859;28;20029;-78
2022/12/06 03:57:06;;;;;;;12.35;5.07;;;7.40;99.90;;;;;;5027678;28;20058;-78
2022/12/06 03:59:32;;;;;;;10.23;5.07;;;7.40;99.90;;;;;;5011520;28;20470;-78
2022/12/06 04:01:57;;;;;;;11.82;5.82;;;7.40;99.90;;;;;;5012671;28;20045;-77
2022/12/06 04:04:23;;;;;;;12.73;4.95;;;7.40;99.90;;;;;;5012971;28;20113;-78
2022/12/06 04:06:50;;;;;;;13.68;4.93;;;7.40;99.90;;;;;;5012892;28;20037;-78
2022/12/06 04:14:57;;;;;;;8.30;4.45;;;7.60;99.90;;;;;;5015600;28;20145;-78
2022/12/06 04:20:07;;;;;;;8.63;3.90;;;7.70;99.90;;;;;;5015145;28;20163;-78
2022/12/06 04:25:17;;;;;;;9.63;4.10;;;7.90;99.90;;;;;;5015380;28;20385;-78
2022/12/06 04:38:42;;;;;;;8.18;3.75;;;7.90;99.90;;;;;;5015867;28;20080;-78
2022/12/06 04:41:09;;;;;;;7.93;4.10;;;7.90;99.90;;;;;;5015672;28;20025;-78
2022/12/06 04:43:43;;;;;;;10.63;4.47;;;7.90;99.90;;;;;;5031056;28;20045;-78
2022/12/06 04:46:11;;;;;;;8.32;3.85;;;7.90;99.90;;;;;;5015043;28;20100;-78
2022/12/06 04:48:37;;;;;;;6.57;3.65;;;7.80;99.90;;;;;;5015323;28;20092;-78
2022/12/06 04:51:03;;;;;;;7.85;3.80;;;7.80;99.90;;;;;;5015729;28;20026;-78
2022/12/06 04:53:29;;;;;;;12.75;4.32;;;7.70;99.90;;;;;;5014536;28;20088;-78
2022/12/06 04:55:55;;;;;;;8.40;4.10;;;7.80;99.90;;;;;;5023688;28;20435;-78
2022/12/06 04:58:20;;;;;;;7.68;3.35;;;7.80;99.90;;;;;;5033160;28;20056;-77
2022/12/06 05:00:49;;;;;;;7.18;3.72;;;7.90;99.90;;;;;;5034957;28;20034;-77
2022/12/06 05:03:15;;;;;;;4.97;2.78;;;7.80;99.90;;;;;;5035348;28;20036;-77
2022/12/06 05:05:41;;;;;;;6.18;3.17;;;7.90;99.90;;;;;;5017728;28;20030;-77
2022/12/06 05:08:07;;;;;;;8.00;3.28;;;7.90;99.90;;;;;;5035581;28;20030;-76
2022/12/06 05:10:32;;;;;;;9.85;3.08;;;7.90;99.90;;;;;;5035015;28;20031;-77
2022/12/06 05:12:59;;;;;;;7.60;3.55;;;7.90;99.90;;;;;;5033851;28;20449;-77
2022/12/06 05:15:24;;;;;;;7.28;3.75;;;7.90;99.90;;;;;;5034842;28;20025;-77
2022/12/06 05:17:50;;;;;;;12.50;3.15;;;7.90;99.90;;;;;;5034972;28;20037;-77
2022/12/06 05:20:16;;;;;;;7.13;3.42;;;7.90;99.90;;;;;;5033317;28;20481;-77
2022/12/06 05:22:42;;;;;;;6.07;3.22;;;7.90;99.90;;;;;;5017545;28;20036;-77
2022/12/06 05:25:08;;;;;;;7.68;3.50;;;7.90;99.90;;;;;;5033474;28;20025;-77
2022/12/06 05:27:34;;;;;;;7.90;3.47;;;7.90;99.90;;;;;;5016780;28;20029;-77
2022/12/06 05:29:59;;;;;;;5.40;3.17;;;7.90;99.90;;;;;;5034268;28;20079;-77
2022/12/06 05:32:25;;;;;;;7.90;3.75;;;7.90;99.90;;;;;;5032920;28;20029;-77
2022/12/06 05:34:50;;;;;;;5.35;2.67;;;7.90;99.90;;;;;;5033530;28;20067;-77
2022/12/06 05:37:16;;;;;;;6.68;2.90;;;7.80;99.90;;;;;;5034115;28;20037;-77
2022/12/06 05:39:42;;;;;;;5.65;3.17;;;7.80;99.90;;;;;;5032885;28;20037;-77
2022/12/06 05:42:08;;;;;;;11.98;3.67;;;7.90;99.90;;;;;;5016835;28;20044;-77
2022/12/06 05:44:33;;;;;;;7.85;3.30;;;7.80;99.90;;;;;;5034521;28;20394;-77
2022/12/06 05:46:59;;;;;;;6.13;3.42;;;7.80;99.90;;;;;;5033730;28;20037;-77
2022/12/06 05:49:26;;;;;;;6.85;3.22;;;7.80;99.90;;;;;;5033391;28;20111;-78
2022/12/06 05:51:51;;;;;;;7.50;3.20;;;7.80;99.90;;;;;;5016634;28;20516;-77
2022/12/06 05:54:17;;;;;;;9.10;3.50;;;7.80;99.90;;;;;;5016235;28;20033;-76
2022/12/06 05:56:43;;;;;;;8.18;3.20;;;7.80;99.90;;;;;;5016029;28;20488;-78
2022/12/06 05:59:08;;;;;;;7.93;3.88;;;7.80;99.90;;;;;;5033312;28;20049;-74
2022/12/06 06:01:34;;;;;;;8.07;3.20;;;7.80;99.90;;;;;;5032594;28;20037;-73
2022/12/06 06:04:00;;;;;;;9.07;3.88;;;7.80;99.90;;;;;;5033828;28;20110;-74
2022/12/06 06:06:26;;;;;;;9.25;3.97;;;7.80;99.90;;;;;;5034027;28;20034;-74
2022/12/06 06:08:52;;;;;;;10.02;3.72;;;7.80;99.90;;;;;;5033741;28;20034;-76
2022/12/06 06:11:18;;;;;;;11.43;3.30;;;7.80;99.90;;;;;;5016078;28;20478;-78
2022/12/06 06:13:44;;;;;;;7.10;3.45;;;7.80;99.90;;;;;;5015933;28;20037;-78
2022/12/06 06:16:09;;;;;;;7.65;3.60;;;7.80;99.90;;;;;;5016140;28;20030;-78
2022/12/06 06:18:35;;;;;;;7.88;3.67;;;7.80;99.90;;;;;;5015478;28;20128;-78
2022/12/06 06:21:00;;;;;;;6.45;3.63;;;7.70;99.90;;;;;;5032112;28;20037;-73
2022/12/06 06:23:27;;;;;;;7.07;3.45;;;7.80;99.90;;;;;;5015773;28;20030;-72
2022/12/06 06:25:53;;;;;;;8.45;3.60;;;7.80;99.90;;;;;;5033508;28;20080;-77
2022/12/06 06:28:19;;;;;;;6.22;3.40;;;7.80;99.90;;;;;;5032220;28;20120;-76
2022/12/06 06:30:45;;;;;;;7.40;3.38;;;7.90;99.90;;;;;;5015450;28;20045;-76
2022/12/06 06:33:11;;;;;;;9.05;3.65;;;7.80;99.90;;;;;;5032024;28;20052;-77
2022/12/06 06:35:37;;;;;;;6.07;3.53;;;7.80;99.90;;;;;;5015479;28;20446;-74
2022/12/06 06:38:03;;;;;;;8.35;3.90;;;7.80;99.90;;;;;;5032801;28;20045;-75
2022/12/06 06:40:29;;;;;;;9.68;3.53;;;7.80;99.90;;;;;;5015926;28;20039;-75
2022/12/06 06:42:55;;;;;;;10.02;3.60;;;7.80;99.90;;;;;;5015002;28;20036;-74
2022/12/06 06:45:21;;;;;;;6.55;3.40;;;7.80;99.90;;;;;;5033154;28;20048;-76
2022/12/06 06:47:47;;;;;;;9.90;3.42;;;7.80;99.90;;;;;;5031964;28;20432;-76
2022/12/06 06:50:13;;;;;;;10.52;3.85;;;7.80;99.90;;;;;;5033427;28;20021;-76
2022/12/06 06:52:38;;;;;;;9.50;3.67;;;7.80;99.90;;;;;;5031853;28;20064;-76
2022/12/06 06:55:04;;;;;;;7.05;3.80;;;7.90;99.90;;;;;;5015455;28;20159;-72
2022/12/06 06:57:30;;;;;;;7.95;2.75;;;7.90;99.90;;;;;;5032834;28;20425;-76
2022/12/06 06:59:56;;;;;;;11.45;3.95;;;7.90;99.90;;;;;;5015440;28;20041;-77
2022/12/06 07:02:21;;;;;;;9.00;3.63;;;7.90;99.90;;;;;;5032691;28;20112;-81
2022/12/06 07:04:48;;;;;;;7.22;3.40;;;7.90;99.90;;;;;;5020947;28;20034;-78
2022/12/06 07:07:14;;;;;;;5.38;2.95;;;8.00;99.90;;;;;;5033625;28;20021;-76
2022/12/06 07:09:40;;;;;;;6.93;3.08;;;8.10;99.90;;;;;;5032805;28;20037;-77
2022/12/06 07:12:06;;;;;;;7.97;3.22;;;8.10;99.90;;;;;;5031389;28;20037;-76
2022/12/06 07:14:32;;;;;;;6.28;3.35;;;8.20;99.90;;;;;;5032238;28;20080;-77
2022/12/06 07:16:58;;;;;;;7.00;1.80;;;8.20;99.90;;;;;;5015735;28;20079;-77
2022/12/06 07:19:24;;;;;;;9.05;3.42;;;8.20;99.90;;;;;;5031967;28;20096;-77
2022/12/06 07:21:49;;;;;;;6.32;2.88;;;8.30;99.90;;;;;;5032512;28;20025;-77
2022/12/06 07:24:15;;;;;;;6.93;3.00;;;8.30;99.90;;;;;;5018337;28;20036;-76
2022/12/06 07:26:41;;;;;;;6.28;3.53;;;8.30;99.90;;;;;;5037189;28;20036;-77
2022/12/06 07:29:07;;;;;;;6.18;2.75;;;8.40;99.90;;;;;;5036275;28;20057;-78
2022/12/06 07:31:33;;;;;;;8.27;2.78;;;8.30;99.90;;;;;;5034837;28;20032;-77
2022/12/06 07:34:01;;;;;;;7.20;2.35;;;8.30;99.90;;;;;;5015832;28;20526;-76
2022/12/06 07:36:29;;;;;;;4.40;2.17;;;8.20;99.90;;;;;;5033121;28;20025;-77
2022/12/06 07:38:57;;;;;;;6.57;2.53;;;8.30;99.90;;;;;;5032415;28;20034;-77
2022/12/06 07:46:58;;;;;;;7.10;2.10;;;8.60;99.90;;;;;;5036118;28;20033;-74
2022/12/06 07:49:24;;;;;;;8.40;2.78;;;8.60;99.90;;;;;;5018782;28;20194;-76
2022/12/06 07:51:49;;;;;;;4.03;1.67;;;8.50;99.90;;;;;;5022431;28;20438;-79
2022/12/06 07:54:16;;;;;;;8.52;2.10;;;8.40;99.90;;;;;;5043353;28;20030;-80
2022/12/06 07:56:42;;;;;;;3.55;1.73;;;8.50;99.90;;;;;;5021371;28;20521;-79
2022/12/06 07:59:08;;;;;;;5.28;1.70;;;8.40;99.90;;;;;;5038531;28;20092;-79
2022/12/06 08:01:34;;;;;;;5.28;1.73;;;8.30;99.90;;;;;;5038476;28;20093;-80
2022/12/06 08:04:02;;;;;;;4.35;1.70;;;8.40;99.90;;;;;;5040036;28;20025;-77
2022/12/06 08:06:29;;;;;;;5.05;1.70;;;8.50;99.90;;;;;;5035982;28;20025;-76
2022/12/06 08:08:55;;;;;;;6.25;1.80;;;8.50;99.90;;;;;;5036198;28;20030;-77
2022/12/06 08:11:21;;;;;;;5.30;1.77;;;8.60;99.90;;;;;;5035454;28;20120;-76
2022/12/06 08:13:47;;;;;;;2.97;1.48;;;8.50;99.90;;;;;;5018168;28;20203;-77
2022/12/06 08:16:13;;;;;;;4.47;1.67;;;8.60;99.90;;;;;;5034441;28;20037;-77
2022/12/06 08:18:40;;;;;;;3.35;1.17;;;8.60;99.90;;;;;;5035505;28;20045;-76
2022/12/06 08:21:06;;;;;;;5.70;1.75;;;8.70;99.90;;;;;;5035708;28;20032;-76
2022/12/06 08:23:32;;;;;;;3.10;1.40;;;8.70;99.90;;;;;;5034611;28;20390;-76
2022/12/06 08:26:07;;;;;;;5.05;1.30;;;8.80;99.90;;;;;;5036001;28;20236;-79
2022/12/06 08:28:34;;;;;;;2.72;1.52;;;8.80;99.90;;;;;;5023128;28;20057;-80
2022/12/06 08:31:07;;;;;;;5.95;2.47;;;8.80;99.90;;;;;;5041595;28;20028;-79
2022/12/06 08:33:33;;;;;;;4.97;1.98;;;8.90;99.90;;;;;;5023704;28;20030;-80
2022/12/06 08:35:59;;;;;;;6.05;1.75;;;8.90;99.90;;;;;;5024643;28;20038;-79
2022/12/06 08:38:25;;;;;;;6.43;2.10;;;8.90;99.90;;;;;;5040636;28;20085;-79
2022/12/06 08:40:51;;;;;;;4.35;2.53;;;8.80;99.90;;;;;;5034762;28;20040;-74
2022/12/06 08:43:16;;;;;;;6.20;1.98;;;8.70;99.90;;;;;;5020916;28;20033;-80
2022/12/06 08:45:42;;;;;;;6.25;1.75;;;8.60;99.90;;;;;;5037730;28;20036;-80
2022/12/06 08:48:08;;;;;;;4.85;1.40;;;8.50;99.90;;;;;;5021204;28;20071;-79
2022/12/06 08:50:33;;;;;;;4.00;1.95;;;8.60;99.90;;;;;;5019872;28;20037;-80
2022/12/06 08:52:59;;;;;;;4.40;1.48;;;8.60;99.90;;;;;;5035923;28;20040;-79
2022/12/06 08:55:25;;;;;;;3.45;1.55;;;8.60;99.90;;;;;;5036797;28;20040;-80
2022/12/06 08:57:50;;;;;;;5.63;1.48;;;8.60;99.90;;;;;;5032375;28;20129;-79
2022/12/06 09:00:16;;;;;;;4.32;1.65;;;8.60;99.90;;;;;;5003788;28;20041;-80
2022/12/06 09:02:42;;;;;;;3.33;1.35;;;8.70;99.90;;;;;;5029733;28;20462;-80
2022/12/06 09:05:08;;;;;;;4.72;1.65;;;8.60;99.90;;;;;;5031285;28;20029;-79
2022/12/06 09:07:33;;;;;;;4.82;1.70;;;8.50;99.90;;;;;;5029682;28;20030;-80
2022/12/06 09:09:59;;;;;;;6.32;1.45;;;8.70;99.90;;;;;;5030506;28;20119;-80
2022/12/06 09:12:25;;;;;;;3.53;1.40;;;8.80;99.90;;;;;;5032479;28;20045;-79
2022/12/06 09:14:51;;;;;;;5.00;1.63;;;8.70;99.90;;;;;;5032367;28;20029;-79
2022/12/06 09:17:16;;;;;;;2.67;1.17;;;8.80;99.90;;;;;;5032686;28;20033;-79
2022/12/06 09:19:42;;;;;;;2.75;1.20;;;8.80;99.90;;;;;;5030326;28;20034;-79
2022/12/06 09:22:08;;;;;;;2.97;1.17;;;8.90;99.90;;;;;;5031552;28;20037;-79
2022/12/06 09:24:34;;;;;;;5.72;1.27;;;9.00;99.90;;;;;;5010523;28;20034;-81
2022/12/06 09:27:00;;;;;;;4.60;1.17;;;9.00;99.90;;;;;;5010468;28;20125;-79
2022/12/06 09:29:25;;;;;;;2.70;1.02;;;9.00;99.90;;;;;;5027227;28;20042;-79
2022/12/06 09:31:52;;;;;;;2.90;0.98;;;9.10;99.90;;;;;;5025618;28;20057;-80
2022/12/06 09:34:18;;;;;;;5.32;1.50;;;9.10;99.90;;;;;;5023044;28;20022;-80
2022/12/06 09:36:46;;;;;;;4.57;1.00;;;9.10;99.90;;;;;;5024458;28;20076;-80
2022/12/06 09:39:17;;;;;;;4.68;1.27;;;9.20;99.90;;;;;;5040092;28;20026;-79
2022/12/06 09:42:01;;;;;;;3.00;0.98;;;9.10;99.90;;;;;;5023448;28;20079;-80
2022/12/06 09:44:56;;;;;;;5.72;1.00;;;9.20;99.90;;;;;;5024071;28;20018;-80
2022/12/06 09:47:48;;;;;;;4.72;1.00;;;9.30;99.90;;;;;;5037774;28;20034;-77
2022/12/06 09:50:25;;;;;;;4.50;1.40;;;9.40;99.90;;;;;;5030970;28;20418;-80
2022/12/06 09:53:31;;;;;;;3.80;1.13;;;9.40;99.50;;;;;;5018959;28;20026;-78
2022/12/06 09:55:59;;;;;;;2.20;0.82;;;9.30;99.70;;;;;;5016970;28;20044;-79
2022/12/06 09:58:43;;;;;;;3.70;0.90;;;9.20;99.80;;;;;;5030731;28;20049;-78
2022/12/06 10:01:25;;;;;;;3.40;1.00;;;9.30;99.80;;;;;;5017482;28;20044;-78
2022/12/06 10:03:58;;;;;;;4.63;1.05;;;9.40;99.90;;;;;;5014033;28;20033;-79
2022/12/06 10:06:29;;;;;;;2.38;0.98;;;9.50;99.60;;;;;;5013833;28;20033;-78
2022/12/06 10:09:28;;;;;;;2.10;0.63;;;9.50;99.30;;;;;;5015531;28;20101;-78
2022/12/06 10:11:57;;;;;;;2.83;1.10;;;9.50;99.30;;;;;;5015574;28;20030;-79
2022/12/06 10:15:02;;;;;;;2.28;0.70;;;9.60;99.00;;;;;;5016900;28;20037;-79
2022/12/06 10:17:46;;;;;;;2.70;1.20;;;9.60;99.00;;;;;;5014615;28;20025;-78
2022/12/06 10:20:21;;;;;;;4.88;1.10;;;9.60;99.00;;;;;;5013703;28;20040;-78
2022/12/06 10:23:14;;;;;;;3.08;1.08;;;9.70;99.00;;;;;;5015223;28;20057;-78
2022/12/06 10:25:50;;;;;;;2.75;0.75;;;9.70;98.90;;;;;;5014667;28;20483;-78
2022/12/06 10:28:42;;;;;;;1.70;0.77;;;9.80;98.80;;;;;;5014457;28;20034;-77
2022/12/06 10:31:46;;;;;;;4.60;0.95;;;9.80;98.70;;;;;;5014129;28;20030;-78
2022/12/06 10:34:19;;;;;;;1.65;0.50;;;9.80;98.40;;;;;;5013551;28;20469;-78
2022/12/06 10:36:56;;;;;;;2.45;0.70;;;9.80;98.20;;;;;;5016199;28;20458;-76
2022/12/06 10:39:50;;;;;;;2.90;0.63;;;9.90;98.00;;;;;;5018910;28;20029;-74
2022/12/06 10:42:32;;;;;;;3.65;0.90;;;9.80;98.00;;;;;;5019852;28;20026;-75
2022/12/06 10:48:28;;;;;;;7.63;1.48;;;9.80;98.30;;;;;;5013403;28;20484;-75
2022/12/06 10:51:11;;;;;;;3.80;0.80;;;9.80;98.20;;;;;;5011941;28;20121;-74
2022/12/06 10:53:44;;;;;;;4.55;0.82;;;9.80;98.10;;;;;;5012666;28;20410;-75
2022/12/06 10:56:25;;;;;;;3.00;1.02;;;9.80;97.50;;;;;;5013829;28;20049;-75
2022/12/06 10:58:58;;;;;;;3.38;0.88;;;9.80;97.90;;;;;;4996468;28;20526;-75
2022/12/06 11:01:27;;;;;;;5.28;1.13;;;9.70;97.00;;;;;;4995808;28;20506;-75
2022/12/06 11:04:19;;;;;;;3.92;0.75;;;9.60;97.10;;;;;;5013123;28;20026;-75
2022/12/06 11:06:48;;;;;;;4.28;1.00;;;9.70;97.40;;;;;;5013281;28;20478;-75
2022/12/06 11:09:39;;;;;;;4.40;1.02;;;9.60;97.20;;;;;;4995433;28;20124;-75
2022/12/06 11:12:28;;;;;;;3.80;0.65;;;9.70;97.50;;;;;;5013105;28;20026;-75
2022/12/06 11:15:01;;;;;;;1.73;0.50;;;9.70;97.50;;;;;;5012786;28;20048;-74
2022/12/06 11:17:33;;;;;;;3.08;0.93;;;9.80;97.50;;;;;;5013496;28;20026;-74
2022/12/06 11:20:14;;;;;;;3.22;0.80;;;9.80;97.00;;;;;;4998840;28;20037;-74
2022/12/06 11:23:04;;;;;;;3.33;0.80;;;9.80;97.30;;;;;;4999712;28;20033;-74
2022/12/06 11:25:49;;;;;;;4.18;0.88;;;10.20;99.90;;;;;;4999263;28;20516;-75
2022/12/06 11:28:40;;;;;;;3.20;0.60;;;10.60;99.10;;;;;;4999891;28;20374;-75
2022/12/06 11:31:14;;;;;;;3.08;1.00;;;10.50;97.40;;;;;;5017064;28;20051;-75
2022/12/06 11:33:40;;;;;;;3.40;0.88;;;10.40;96.90;;;;;;5016279;28;20115;-74
2022/12/06 11:36:07;;;;;;;3.97;0.63;;;10.40;96.60;;;;;;5016899;28;20529;-75
2022/12/06 11:38:35;;;;;;;2.67;0.65;;;10.40;96.30;;;;;;5016890;28;20038;-74
2022/12/06 11:41:03;;;;;;;2.35;0.80;;;10.20;95.30;;;;;;5016761;28;20022;-74
2022/12/06 11:43:34;;;;;;;3.28;0.88;;;10.10;94.90;;;;;;4999134;28;20041;-74
2022/12/06 11:46:01;;;;;;;3.72;0.75;;;10.00;94.90;;;;;;5016645;28;20105;-74
2022/12/06 11:48:32;;;;;;;5.15;0.90;;;9.90;95.60;;;;;;5016628;28;20026;-75
2022/12/06 11:50:57;;;;;;;3.38;0.70;;;9.80;95.70;;;;;;5016992;28;20030;-74
2022/12/06 11:53:32;;;;;;;4.35;1.02;;;9.90;96.60;;;;;;5016699;28;20036;-75
2022/12/06 11:56:27;;;;;;;7.93;0.77;;;10.00;96.40;;;;;;4999395;28;20026;-72
2022/12/06 11:59:15;;;;;;;4.35;0.80;;;9.90;96.00;;;;;;5011445;28;20041;-74
2022/12/06 12:01:44;;;;;;;3.13;1.17;;;10.00;96.20;;;;;;5016438;28;20053;-74
2022/12/06 12:04:37;;;;;;;4.45;0.85;;;10.00;95.90;;;;;;5031807;28;20041;-75
2022/12/06 12:07:08;;;;;;;4.47;0.90;;;9.90;95.80;;;;;;5031376;28;20117;-76
2022/12/06 12:10:01;;;;;;;3.03;1.13;;;9.90;95.90;;;;;;5016446;28;20040;-76
2022/12/06 12:15:33;;;;;;;2.80;0.85;;;10.00;95.50;;;;;;5017912;28;20371;-75
2022/12/06 12:18:00;;;;;;;4.78;1.02;;;9.90;95.00;;;;;;5032284;28;20030;-74
2022/12/06 12:20:27;;;;;;;3.28;0.82;;;9.90;95.30;;;;;;5031205;28;20037;-75
2022/12/06 12:23:18;;;;;;;4.18;1.23;;;9.90;95.40;;;;;;5016346;28;20517;-75
2022/12/06 12:26:12;;;;;;;5.93;2.15;;;9.80;95.20;;;;;;5007139;28;20073;-76
2022/12/06 12:28:38;;;;;;;3.13;0.70;;;9.80;95.50;;;;;;5015731;28;20455;-77
2022/12/06 12:31:18;;;;;;;5.00;0.98;;;9.80;95.70;;;;;;5013999;28;20367;-76
2022/12/06 12:33:44;;;;;;;3.70;1.00;;;9.80;95.40;;;;;;5014725;28;20107;-75
2022/12/06 12:36:23;;;;;;;7.43;1.08;;;9.80;95.40;;;;;;5016030;28;20052;-76
2022/12/06 12:38:55;;;;;;;4.50;0.98;;;9.80;95.30;;;;;;5016112;28;20038;-77
2022/12/06 12:41:32;;;;;;;4.50;0.77;;;9.80;95.20;;;;;;5016059;28;20018;-76
2022/12/06 12:44:04;;;;;;;4.63;0.90;;;9.80;95.20;;;;;;5015407;28;20033;-76
2022/12/06 12:46:35;;;;;;;3.03;0.97;;;9.80;95.30;;;;;;5030954;28;20022;-75
2022/12/06 12:49:22;;;;;;;2.75;1.00;;;9.80;95.00;;;;;;5015584;28;20402;-77
2022/12/06 12:51:48;;;;;;;1.73;0.68;;;9.80;95.30;;;;;;5031156;28;20026;-77
2022/12/06 12:54:27;;;;;;;2.13;0.70;;;9.70;95.10;;;;;;5014317;28;20030;-77
2022/12/06 12:56:54;;;;;;;2.60;0.70;;;9.70;94.70;;;;;;5018435;28;20053;-77
2022/12/06 12:59:25;;;;;;;2.60;0.88;;;9.70;94.00;;;;;;5033979;28;20095;-74
2022/12/06 13:02:03;;;;;;;6.10;1.30;;;9.60;93.70;;;;;;5017058;28;20111;-76
2022/12/06 13:04:40;;;;;;;3.42;0.77;;;9.60;93.90;;;;;;5035432;28;20116;-76
2022/12/06 13:07:16;;;;;;;4.10;0.80;;;9.60;94.10;;;;;;5035045;28;20021;-76
2022/12/06 13:09:54;;;;;;;3.67;1.00;;;9.60;93.70;;;;;;5033834;28;20034;-75
2022/12/06 13:12:24;;;;;;;2.20;0.70;;;9.50;94.10;;;;;;5033520;28;20022;-76
2022/12/06 13:14:59;;;;;;;3.17;1.00;;;9.40;93.80;;;;;;5034740;28;20030;-75
2022/12/06 13:17:27;;;;;;;3.80;1.02;;;9.40;94.20;;;;;;5017216;28;20354;-76
2022/12/06 13:19:55;;;;;;;4.55;1.05;;;9.40;94.50;;;;;;5016638;28;20090;-76
2022/12/06 13:22:26;;;;;;;4.32;1.20;;;9.50;94.30;;;;;;5016133;28;20026;-77
2022/12/06 13:25:10;;;;;;;5.15;1.23;;;9.40;94.40;;;;;;5016570;28;20029;-77
2022/12/06 13:27:43;;;;;;;3.38;1.10;;;9.40;94.70;;;;;;5034691;28;20025;-76
2022/12/06 13:30:24;;;;;;;1.65;0.82;;;9.40;94.70;;;;;;5034395;28;20482;-76
2022/12/06 13:33:01;;;;;;;5.07;1.00;;;9.30;94.70;;;;;;5016600;28;20470;-77
2022/12/06 13:35:58;;;;;;;4.28;1.20;;;9.30;94.70;;;;;;5017074;28;20335;-76
2022/12/06 13:38:35;;;;;;;5.75;0.90;;;9.20;94.90;;;;;;5031151;28;20118;-76
2022/12/06 13:41:10;;;;;;;2.78;0.90;;;9.30;95.20;;;;;;5033390;28;20030;-76
2022/12/06 13:43:35;;;;;;;3.08;1.00;;;9.30;95.30;;;;;;5034119;28;20129;-76
2022/12/06 13:46:21;;;;;;;2.38;1.20;;;9.30;95.30;;;;;;5033202;28;20135;-77
2022/12/06 13:48:58;;;;;;;4.30;1.88;;;9.30;95.30;;;;;;5035283;28;20163;-76
2022/12/06 13:51:30;;;;;;;5.20;1.58;;;9.20;95.50;;;;;;5017597;28;20040;-75